sensor_id;sensor_type;location;lat;lon;timestamp;P1;durP1;ratioP1;P2;durP2;ratioP2
65407;SDS011;52017;51.230;-2.322;2022-09-27T00:01:01;4.27;;;1.20;;
65407;SDS011;52017;51.230;-2.322;2022-09-27T00:04:45;4.97;;;1.10;;
65407;SDS011;52017;51.230;-2.322;2022-09-27T00:08:27;5.30;;;1.20;;
65407;SDS011;52017;51.230;-2.322;2022-09-27T00:12:09;5.30;;;1.27;;
65407;SDS011;52017;51.230;-2.322;2022-09-27T00:15:57;5.73;;;1.50;;
65407;SDS011;52017;51.230;-2.322;2022-09-27T00:19:41;5.87;;;1.20;;
65407;SDS011;52017;51.230;-2.322;2022-09-27T00:23:23;6.00;;;1.63;;
65407;SDS011;52017;51.230;-2.322;2022-09-27T00:27:05;5.80;;;1.50;;
65407;SDS011;52017;51.230;-2.322;2022-09-27T00:30:46;4.70;;;1.30;;
65407;SDS011;52017;51.230;-2.322;2022-09-27T00:34:29;6.03;;;1.50;;
65407;SDS011;52017;51.230;-2.322;2022-09-27T00:38:11;7.10;;;1.40;;
65407;SDS011;52017;51.230;-2.322;2022-09-27T00:41:53;5.07;;;1.20;;
65407;SDS011;52017;51.230;-2.322;2022-09-27T00:45:36;7.80;;;1.37;;
65407;SDS011;52017;51.230;-2.322;2022-09-27T00:49:19;9.13;;;1.27;;
65407;SDS011;52017;51.230;-2.322;2022-09-27T00:53:23;6.33;;;1.50;;
65407;SDS011;52017;51.230;-2.322;2022-09-27T00:57:11;8.30;;;1.40;;
65407;SDS011;52017;51.230;-2.322;2022-09-27T01:00:55;6.13;;;2.23;;
65407;SDS011;52017;51.230;-2.322;2022-09-27T01:04:42;4.23;;;1.00;;
65407;SDS011;52017;51.230;-2.322;2022-09-27T01:08:25;5.40;;;1.17;;
65407;SDS011;52017;51.230;-2.322;2022-09-27T01:12:10;5.40;;;1.40;;
65407;SDS011;52017;51.230;-2.322;2022-09-27T01:16:27;6.90;;;1.43;;
65407;SDS011;52017;51.230;-2.322;2022-09-27T01:40:13;4.00;;;1.20;;
65407;SDS011;52017;51.230;-2.322;2022-09-27T01:44:03;4.67;;;1.10;;
65407;SDS011;52017;51.230;-2.322;2022-09-27T01:47:51;7.37;;;1.43;;
65407;SDS011;52017;51.230;-2.322;2022-09-27T01:51:49;6.17;;;1.63;;
65407;SDS011;52017;51.230;-2.322;2022-09-27T01:55:37;10.93;;;1.60;;
65407;SDS011;52017;51.230;-2.322;2022-09-27T01:59:27;5.33;;;1.47;;
65407;SDS011;52017;51.230;-2.322;2022-09-27T02:03:30;6.07;;;1.70;;
65407;SDS011;52017;51.230;-2.322;2022-09-27T02:07:52;6.03;;;1.27;;
65407;SDS011;52017;51.230;-2.322;2022-09-27T02:11:32;6.77;;;1.40;;
65407;SDS011;52017;51.230;-2.322;2022-09-27T02:19:09;6.90;;;1.30;;
65407;SDS011;52017;51.230;-2.322;2022-09-27T02:27:11;6.27;;;1.80;;
65407;SDS011;52017;51.230;-2.322;2022-09-27T02:31:02;8.27;;;1.47;;
65407;SDS011;52017;51.230;-2.322;2022-09-27T02:34:44;7.40;;;1.97;;
65407;SDS011;52017;51.230;-2.322;2022-09-27T02:38:27;13.93;;;2.40;;
65407;SDS011;52017;51.230;-2.322;2022-09-27T02:42:10;10.10;;;1.90;;
65407;SDS011;52017;51.230;-2.322;2022-09-27T02:46:03;9.23;;;1.63;;
65407;SDS011;52017;51.230;-2.322;2022-09-27T02:53:55;6.07;;;1.50;;
65407;SDS011;52017;51.230;-2.322;2022-09-27T03:06:03;5.73;;;1.43;;
65407;SDS011;52017;51.230;-2.322;2022-09-27T03:09:51;6.87;;;1.60;;
65407;SDS011;52017;51.230;-2.322;2022-09-27T03:13:34;8.33;;;1.80;;
65407;SDS011;52017;51.230;-2.322;2022-09-27T03:17:39;11.93;;;1.70;;
65407;SDS011;52017;51.230;-2.322;2022-09-27T03:21:21;10.83;;;1.97;;
65407;SDS011;52017;51.230;-2.322;2022-09-27T03:25:04;8.00;;;1.60;;
65407;SDS011;52017;51.230;-2.322;2022-09-27T03:28:46;10.13;;;2.17;;
65407;SDS011;52017;51.230;-2.322;2022-09-27T03:32:28;11.53;;;2.53;;
65407;SDS011;52017;51.230;-2.322;2022-09-27T03:36:11;11.57;;;1.90;;
65407;SDS011;52017;51.230;-2.322;2022-09-27T03:39:53;6.40;;;2.10;;
65407;SDS011;52017;51.230;-2.322;2022-09-27T03:43:36;11.80;;;2.33;;
65407;SDS011;52017;51.230;-2.322;2022-09-27T03:47:18;18.97;;;2.63;;
65407;SDS011;52017;51.230;-2.322;2022-09-27T03:51:00;15.40;;;3.03;;
65407;SDS011;52017;51.230;-2.322;2022-09-27T03:54:41;9.77;;;2.63;;
65407;SDS011;52017;51.230;-2.322;2022-09-27T03:58:23;12.17;;;2.63;;
65407;SDS011;52017;51.230;-2.322;2022-09-27T04:02:06;12.70;;;2.53;;
65407;SDS011;52017;51.230;-2.322;2022-09-27T04:05:48;14.33;;;3.20;;
65407;SDS011;52017;51.230;-2.322;2022-09-27T04:09:30;9.37;;;2.90;;
65407;SDS011;52017;51.230;-2.322;2022-09-27T04:13:11;16.47;;;3.40;;
65407;SDS011;52017;51.230;-2.322;2022-09-27T04:16:53;13.33;;;2.93;;
65407;SDS011;52017;51.230;-2.322;2022-09-27T04:20:36;16.63;;;3.00;;
65407;SDS011;52017;51.230;-2.322;2022-09-27T04:24:18;15.57;;;3.37;;
65407;SDS011;52017;51.230;-2.322;2022-09-27T04:28:00;12.80;;;2.80;;
65407;SDS011;52017;51.230;-2.322;2022-09-27T04:31:42;15.23;;;2.63;;
65407;SDS011;52017;51.230;-2.322;2022-09-27T04:35:24;15.30;;;2.93;;
65407;SDS011;52017;51.230;-2.322;2022-09-27T04:39:25;26.87;;;7.07;;
65407;SDS011;52017;51.230;-2.322;2022-09-27T04:43:07;20.57;;;3.87;;
65407;SDS011;52017;51.230;-2.322;2022-09-27T04:46:49;11.87;;;3.17;;
65407;SDS011;52017;51.230;-2.322;2022-09-27T04:50:32;12.13;;;3.23;;
65407;SDS011;52017;51.230;-2.322;2022-09-27T04:54:16;12.37;;;2.80;;
65407;SDS011;52017;51.230;-2.322;2022-09-27T04:58:01;14.87;;;3.00;;
65407;SDS011;52017;51.230;-2.322;2022-09-27T05:01:43;13.27;;;2.77;;
65407;SDS011;52017;51.230;-2.322;2022-09-27T05:05:25;16.47;;;3.23;;
65407;SDS011;52017;51.230;-2.322;2022-09-27T05:09:08;15.50;;;2.93;;
65407;SDS011;52017;51.230;-2.322;2022-09-27T05:12:50;16.97;;;4.90;;
65407;SDS011;52017;51.230;-2.322;2022-09-27T05:16:32;13.93;;;3.07;;
65407;SDS011;52017;51.230;-2.322;2022-09-27T05:20:14;18.53;;;4.13;;
65407;SDS011;52017;51.230;-2.322;2022-09-27T05:23:57;10.87;;;2.70;;
65407;SDS011;52017;51.230;-2.322;2022-09-27T05:27:40;9.80;;;2.80;;
65407;SDS011;52017;51.230;-2.322;2022-09-27T05:31:22;14.13;;;3.00;;
65407;SDS011;52017;51.230;-2.322;2022-09-27T05:35:04;14.47;;;3.37;;
65407;SDS011;52017;51.230;-2.322;2022-09-27T05:38:46;13.13;;;3.13;;
65407;SDS011;52017;51.230;-2.322;2022-09-27T05:42:28;14.00;;;3.40;;
65407;SDS011;52017;51.230;-2.322;2022-09-27T05:46:10;17.37;;;3.47;;
65407;SDS011;52017;51.230;-2.322;2022-09-27T05:49:53;20.30;;;3.27;;
65407;SDS011;52017;51.230;-2.322;2022-09-27T05:53:36;18.40;;;3.73;;
65407;SDS011;52017;51.230;-2.322;2022-09-27T05:57:18;17.53;;;3.00;;
65407;SDS011;52017;51.230;-2.322;2022-09-27T06:01:00;16.90;;;3.53;;
65407;SDS011;52017;51.230;-2.322;2022-09-27T06:04:42;11.53;;;3.53;;
65407;SDS011;52017;51.230;-2.322;2022-09-27T06:08:24;16.73;;;3.03;;
65407;SDS011;52017;51.230;-2.322;2022-09-27T06:12:06;16.10;;;3.20;;
65407;SDS011;52017;51.230;-2.322;2022-09-27T06:15:52;8.15;;;2.05;;
65407;SDS011;52017;51.230;-2.322;2022-09-27T06:19:34;14.77;;;3.67;;
65407;SDS011;52017;51.230;-2.322;2022-09-27T06:23:17;13.30;;;3.00;;
65407;SDS011;52017;51.230;-2.322;2022-09-27T06:27:00;15.33;;;3.20;;
65407;SDS011;52017;51.230;-2.322;2022-09-27T06:30:43;13.30;;;3.13;;
65407;SDS011;52017;51.230;-2.322;2022-09-27T06:34:26;12.27;;;2.97;;
65407;SDS011;52017;51.230;-2.322;2022-09-27T06:38:09;11.30;;;3.07;;
65407;SDS011;52017;51.230;-2.322;2022-09-27T06:41:56;14.73;;;3.20;;
65407;SDS011;52017;51.230;-2.322;2022-09-27T06:45:38;14.93;;;3.30;;
65407;SDS011;52017;51.230;-2.322;2022-09-27T06:49:20;16.13;;;3.53;;
65407;SDS011;52017;51.230;-2.322;2022-09-27T06:53:10;14.17;;;4.43;;
65407;SDS011;52017;51.230;-2.322;2022-09-27T06:56:53;14.67;;;2.93;;
65407;SDS011;52017;51.230;-2.322;2022-09-27T07:00:42;12.33;;;2.47;;
65407;SDS011;52017;51.230;-2.322;2022-09-27T07:04:26;10.00;;;2.33;;
65407;SDS011;52017;51.230;-2.322;2022-09-27T07:08:12;16.08;;;4.32;;
65407;SDS011;52017;51.230;-2.322;2022-09-27T07:11:54;12.93;;;3.13;;
65407;SDS011;52017;51.230;-2.322;2022-09-27T07:15:36;13.13;;;4.13;;
65407;SDS011;52017;51.230;-2.322;2022-09-27T07:19:21;15.23;;;4.07;;
65407;SDS011;52017;51.230;-2.322;2022-09-27T07:23:03;14.50;;;3.10;;
65407;SDS011;52017;51.230;-2.322;2022-09-27T07:26:47;17.03;;;4.53;;
65407;SDS011;52017;51.230;-2.322;2022-09-27T07:30:29;20.07;;;4.87;;
65407;SDS011;52017;51.230;-2.322;2022-09-27T07:34:11;17.93;;;4.77;;
65407;SDS011;52017;51.230;-2.322;2022-09-27T07:37:54;17.47;;;5.57;;
65407;SDS011;52017;51.230;-2.322;2022-09-27T07:41:38;18.47;;;4.70;;
65407;SDS011;52017;51.230;-2.322;2022-09-27T07:45:23;19.67;;;5.35;;
65407;SDS011;52017;51.230;-2.322;2022-09-27T07:49:06;14.70;;;4.43;;
65407;SDS011;52017;51.230;-2.322;2022-09-27T07:52:48;16.90;;;4.03;;
65407;SDS011;52017;51.230;-2.322;2022-09-27T07:56:31;23.63;;;4.50;;
65407;SDS011;52017;51.230;-2.322;2022-09-27T08:00:14;26.60;;;5.17;;
65407;SDS011;52017;51.230;-2.322;2022-09-27T08:03:57;16.97;;;5.10;;
65407;SDS011;52017;51.230;-2.322;2022-09-27T08:07:39;20.73;;;5.57;;
65407;SDS011;52017;51.230;-2.322;2022-09-27T08:11:21;20.77;;;4.97;;
65407;SDS011;52017;51.230;-2.322;2022-09-27T08:15:04;19.05;;;4.22;;
65407;SDS011;52017;51.230;-2.322;2022-09-27T08:18:46;23.77;;;4.68;;
65407;SDS011;52017;51.230;-2.322;2022-09-27T08:22:28;24.40;;;5.82;;
65407;SDS011;52017;51.230;-2.322;2022-09-27T08:26:13;18.55;;;4.68;;
65407;SDS011;52017;51.230;-2.322;2022-09-27T08:29:55;23.00;;;6.20;;
65407;SDS011;52017;51.230;-2.322;2022-09-27T08:33:38;19.13;;;5.45;;
65407;SDS011;52017;51.230;-2.322;2022-09-27T08:37:22;21.45;;;4.75;;
65407;SDS011;52017;51.230;-2.322;2022-09-27T08:44:52;17.98;;;5.03;;
65407;SDS011;52017;51.230;-2.322;2022-09-27T08:49:04;18.88;;;4.75;;
65407;SDS011;52017;51.230;-2.322;2022-09-27T08:57:02;15.95;;;4.43;;
65407;SDS011;52017;51.230;-2.322;2022-09-27T09:00:48;14.32;;;4.07;;
65407;SDS011;52017;51.230;-2.322;2022-09-27T09:04:37;15.68;;;4.60;;
65407;SDS011;52017;51.230;-2.322;2022-09-27T09:36:16;17.02;;;5.30;;
65407;SDS011;52017;51.230;-2.322;2022-09-27T09:44:17;17.42;;;4.68;;
65407;SDS011;52017;51.230;-2.322;2022-09-27T09:52:13;14.65;;;4.35;;
65407;SDS011;52017;51.230;-2.322;2022-09-27T09:56:02;16.67;;;4.50;;
65407;SDS011;52017;51.230;-2.322;2022-09-27T09:59:52;15.48;;;4.43;;
65407;SDS011;52017;51.230;-2.322;2022-09-27T10:03:39;14.88;;;3.58;;
65407;SDS011;52017;51.230;-2.322;2022-09-27T10:07:21;12.07;;;3.30;;
65407;SDS011;52017;51.230;-2.322;2022-09-27T10:11:05;10.30;;;3.58;;
65407;SDS011;52017;51.230;-2.322;2022-09-27T10:14:49;11.75;;;3.88;;
65407;SDS011;52017;51.230;-2.322;2022-09-27T10:18:34;8.60;;;3.13;;
65407;SDS011;52017;51.230;-2.322;2022-09-27T10:22:27;12.45;;;3.58;;
65407;SDS011;52017;51.230;-2.322;2022-09-27T10:26:11;8.93;;;3.22;;
65407;SDS011;52017;51.230;-2.322;2022-09-27T10:29:57;15.75;;;3.88;;
65407;SDS011;52017;51.230;-2.322;2022-09-27T10:33:59;9.05;;;3.00;;
65407;SDS011;52017;51.230;-2.322;2022-09-27T10:37:46;10.77;;;3.33;;
65407;SDS011;52017;51.230;-2.322;2022-09-27T10:41:35;11.95;;;3.40;;
65407;SDS011;52017;51.230;-2.322;2022-09-27T10:45:29;15.07;;;4.63;;
65407;SDS011;52017;51.230;-2.322;2022-09-27T10:49:20;10.85;;;2.88;;
65407;SDS011;52017;51.230;-2.322;2022-09-27T10:53:18;17.55;;;4.10;;
65407;SDS011;52017;51.230;-2.322;2022-09-27T11:01:14;12.30;;;2.70;;
65407;SDS011;52017;51.230;-2.322;2022-09-27T11:08:45;15.02;;;4.45;;
65407;SDS011;52017;51.230;-2.322;2022-09-27T11:12:29;16.83;;;4.22;;
65407;SDS011;52017;51.230;-2.322;2022-09-27T11:16:31;11.93;;;3.13;;
65407;SDS011;52017;51.230;-2.322;2022-09-27T11:20:43;16.55;;;4.45;;
65407;SDS011;52017;51.230;-2.322;2022-09-27T11:29:07;13.30;;;3.20;;
65407;SDS011;52017;51.230;-2.322;2022-09-27T11:49:57;21.55;;;12.82;;
65407;SDS011;52017;51.230;-2.322;2022-09-27T11:58:00;15.82;;;4.43;;
65407;SDS011;52017;51.230;-2.322;2022-09-27T12:01:52;21.05;;;5.53;;
65407;SDS011;52017;51.230;-2.322;2022-09-27T12:10:10;19.20;;;4.70;;
65407;SDS011;52017;51.230;-2.322;2022-09-27T12:13:56;18.25;;;4.72;;
65407;SDS011;52017;51.230;-2.322;2022-09-27T12:17:45;26.55;;;9.95;;
65407;SDS011;52017;51.230;-2.322;2022-09-27T12:21:31;17.45;;;4.82;;
65407;SDS011;52017;51.230;-2.322;2022-09-27T12:25:15;16.00;;;3.70;;
65407;SDS011;52017;51.230;-2.322;2022-09-27T12:29:24;14.38;;;4.15;;
65407;SDS011;52017;51.230;-2.322;2022-09-27T12:33:26;14.75;;;3.80;;
65407;SDS011;52017;51.230;-2.322;2022-09-27T12:41:11;11.77;;;3.30;;
65407;SDS011;52017;51.230;-2.322;2022-09-27T12:44:57;16.60;;;4.25;;
65407;SDS011;52017;51.230;-2.322;2022-09-27T12:49:02;10.57;;;3.17;;
65407;SDS011;52017;51.230;-2.322;2022-09-27T12:52:54;10.75;;;4.10;;
65407;SDS011;52017;51.230;-2.322;2022-09-27T13:00:37;14.32;;;4.00;;
65407;SDS011;52017;51.230;-2.322;2022-09-27T13:08:59;10.77;;;3.92;;
65407;SDS011;52017;51.230;-2.322;2022-09-27T13:12:47;13.57;;;3.45;;
65407;SDS011;52017;51.230;-2.322;2022-09-27T13:16:40;13.90;;;4.13;;
65407;SDS011;52017;51.230;-2.322;2022-09-27T13:32:18;9.05;;;3.25;;
65407;SDS011;52017;51.230;-2.322;2022-09-27T13:39:48;15.27;;;4.15;;
65407;SDS011;52017;51.230;-2.322;2022-09-27T13:47:35;17.73;;;4.18;;
65407;SDS011;52017;51.230;-2.322;2022-09-27T13:55:49;13.07;;;3.47;;
65407;SDS011;52017;51.230;-2.322;2022-09-27T14:03:34;11.45;;;4.18;;
65407;SDS011;52017;51.230;-2.322;2022-09-27T14:07:23;8.55;;;3.17;;
65407;SDS011;52017;51.230;-2.322;2022-09-27T14:15:16;17.02;;;4.55;;
65407;SDS011;52017;51.230;-2.322;2022-09-27T14:19:08;22.30;;;5.23;;
65407;SDS011;52017;51.230;-2.322;2022-09-27T14:22:59;18.20;;;5.22;;
65407;SDS011;52017;51.230;-2.322;2022-09-27T14:26:42;15.68;;;4.00;;
65407;SDS011;52017;51.230;-2.322;2022-09-27T14:30:25;37.70;;;19.73;;
65407;SDS011;52017;51.230;-2.322;2022-09-27T14:34:09;12.93;;;4.25;;
65407;SDS011;52017;51.230;-2.322;2022-09-27T14:37:54;14.68;;;3.78;;
65407;SDS011;52017;51.230;-2.322;2022-09-27T14:41:36;13.77;;;4.35;;
65407;SDS011;52017;51.230;-2.322;2022-09-27T14:45:25;15.50;;;3.65;;
65407;SDS011;52017;51.230;-2.322;2022-09-27T14:49:17;17.20;;;4.47;;
65407;SDS011;52017;51.230;-2.322;2022-09-27T14:53:00;15.00;;;4.05;;
65407;SDS011;52017;51.230;-2.322;2022-09-27T14:56:45;17.47;;;4.00;;
65407;SDS011;52017;51.230;-2.322;2022-09-27T15:00:32;18.73;;;4.15;;
65407;SDS011;52017;51.230;-2.322;2022-09-27T15:04:17;17.13;;;4.30;;
65407;SDS011;52017;51.230;-2.322;2022-09-27T15:08:01;19.55;;;5.40;;
65407;SDS011;52017;51.230;-2.322;2022-09-27T15:11:48;19.48;;;4.90;;
65407;SDS011;52017;51.230;-2.322;2022-09-27T15:15:35;19.52;;;4.95;;
65407;SDS011;52017;51.230;-2.322;2022-09-27T15:19:24;18.05;;;4.50;;
65407;SDS011;52017;51.230;-2.322;2022-09-27T15:23:23;18.77;;;4.93;;
65407;SDS011;52017;51.230;-2.322;2022-09-27T15:30:58;20.13;;;4.25;;
65407;SDS011;52017;51.230;-2.322;2022-09-27T15:34:41;14.82;;;3.95;;
65407;SDS011;52017;51.230;-2.322;2022-09-27T15:42:15;18.10;;;4.20;;
65407;SDS011;52017;51.230;-2.322;2022-09-27T15:46:00;15.52;;;5.00;;
65407;SDS011;52017;51.230;-2.322;2022-09-27T15:49:45;12.77;;;4.00;;
65407;SDS011;52017;51.230;-2.322;2022-09-27T15:57:14;14.05;;;4.20;;
65407;SDS011;52017;51.230;-2.322;2022-09-27T16:00:57;12.10;;;3.25;;
65407;SDS011;52017;51.230;-2.322;2022-09-27T16:04:43;8.10;;;2.90;;
65407;SDS011;52017;51.230;-2.322;2022-09-27T16:08:27;13.40;;;3.45;;
65407;SDS011;52017;51.230;-2.322;2022-09-27T16:12:09;11.77;;;3.15;;
65407;SDS011;52017;51.230;-2.322;2022-09-27T16:15:51;10.45;;;2.47;;
65407;SDS011;52017;51.230;-2.322;2022-09-27T16:19:33;15.15;;;3.78;;
65407;SDS011;52017;51.230;-2.322;2022-09-27T16:23:15;11.38;;;3.55;;
65407;SDS011;52017;51.230;-2.322;2022-09-27T16:26:57;14.82;;;6.60;;
65407;SDS011;52017;51.230;-2.322;2022-09-27T16:30:39;11.77;;;3.05;;
65407;SDS011;52017;51.230;-2.322;2022-09-27T16:34:21;13.18;;;4.05;;
65407;SDS011;52017;51.230;-2.322;2022-09-27T16:38:03;10.80;;;3.30;;
65407;SDS011;52017;51.230;-2.322;2022-09-27T16:41:45;14.27;;;4.03;;
65407;SDS011;52017;51.230;-2.322;2022-09-27T16:45:28;14.02;;;4.20;;
65407;SDS011;52017;51.230;-2.322;2022-09-27T16:49:13;9.50;;;3.27;;
65407;SDS011;52017;51.230;-2.322;2022-09-27T16:53:13;9.90;;;3.15;;
65407;SDS011;52017;51.230;-2.322;2022-09-27T16:56:57;12.38;;;3.00;;
65407;SDS011;52017;51.230;-2.322;2022-09-27T17:00:39;12.82;;;2.67;;
65407;SDS011;52017;51.230;-2.322;2022-09-27T17:04:23;15.00;;;4.00;;
65407;SDS011;52017;51.230;-2.322;2022-09-27T17:08:06;11.30;;;2.90;;
65407;SDS011;52017;51.230;-2.322;2022-09-27T17:11:48;9.10;;;2.65;;
65407;SDS011;52017;51.230;-2.322;2022-09-27T17:15:30;9.88;;;2.88;;
65407;SDS011;52017;51.230;-2.322;2022-09-27T17:19:12;9.52;;;2.30;;
65407;SDS011;52017;51.230;-2.322;2022-09-27T17:22:55;12.20;;;3.25;;
65407;SDS011;52017;51.230;-2.322;2022-09-27T17:26:37;9.88;;;2.97;;
65407;SDS011;52017;51.230;-2.322;2022-09-27T17:30:19;10.00;;;2.42;;
65407;SDS011;52017;51.230;-2.322;2022-09-27T17:34:01;8.70;;;2.70;;
65407;SDS011;52017;51.230;-2.322;2022-09-27T17:37:43;9.93;;;2.73;;
65407;SDS011;52017;51.230;-2.322;2022-09-27T17:41:27;9.97;;;2.60;;
65407;SDS011;52017;51.230;-2.322;2022-09-27T17:45:09;10.73;;;2.40;;
65407;SDS011;52017;51.230;-2.322;2022-09-27T17:48:52;8.70;;;2.33;;
65407;SDS011;52017;51.230;-2.322;2022-09-27T17:52:53;8.53;;;2.87;;
65407;SDS011;52017;51.230;-2.322;2022-09-27T17:56:37;11.43;;;3.10;;
65407;SDS011;52017;51.230;-2.322;2022-09-27T18:00:20;11.03;;;2.20;;
65407;SDS011;52017;51.230;-2.322;2022-09-27T18:04:02;11.03;;;2.17;;
65407;SDS011;52017;51.230;-2.322;2022-09-27T18:07:45;15.37;;;2.97;;
65407;SDS011;52017;51.230;-2.322;2022-09-27T18:11:27;10.70;;;2.43;;
65407;SDS011;52017;51.230;-2.322;2022-09-27T18:15:09;18.50;;;8.40;;
65407;SDS011;52017;51.230;-2.322;2022-09-27T18:18:51;8.77;;;2.57;;
65407;SDS011;52017;51.230;-2.322;2022-09-27T18:22:33;6.87;;;2.20;;
65407;SDS011;52017;51.230;-2.322;2022-09-27T18:26:15;8.53;;;2.13;;
65407;SDS011;52017;51.230;-2.322;2022-09-27T18:29:57;9.47;;;2.63;;
65407;SDS011;52017;51.230;-2.322;2022-09-27T18:33:40;8.77;;;3.37;;
65407;SDS011;52017;51.230;-2.322;2022-09-27T18:37:22;8.10;;;2.13;;
65407;SDS011;52017;51.230;-2.322;2022-09-27T18:41:06;9.37;;;3.03;;
65407;SDS011;52017;51.230;-2.322;2022-09-27T18:44:49;7.77;;;2.47;;
65407;SDS011;52017;51.230;-2.322;2022-09-27T18:48:32;10.13;;;3.63;;
65407;SDS011;52017;51.230;-2.322;2022-09-27T18:52:15;10.60;;;4.47;;
65407;SDS011;52017;51.230;-2.322;2022-09-27T18:56:00;7.63;;;2.13;;
65407;SDS011;52017;51.230;-2.322;2022-09-27T18:59:44;9.10;;;2.80;;
65407;SDS011;52017;51.230;-2.322;2022-09-27T19:03:28;8.83;;;2.17;;
65407;SDS011;52017;51.230;-2.322;2022-09-27T19:07:10;8.77;;;3.53;;
65407;SDS011;52017;51.230;-2.322;2022-09-27T19:10:52;6.23;;;1.80;;
65407;SDS011;52017;51.230;-2.322;2022-09-27T19:14:34;8.23;;;2.10;;
65407;SDS011;52017;51.230;-2.322;2022-09-27T19:18:16;7.30;;;1.90;;
65407;SDS011;52017;51.230;-2.322;2022-09-27T19:21:58;7.93;;;2.40;;
65407;SDS011;52017;51.230;-2.322;2022-09-27T19:25:40;8.47;;;2.63;;
65407;SDS011;52017;51.230;-2.322;2022-09-27T19:29:22;9.53;;;2.30;;
65407;SDS011;52017;51.230;-2.322;2022-09-27T19:33:04;7.40;;;2.50;;
65407;SDS011;52017;51.230;-2.322;2022-09-27T19:36:46;6.50;;;2.00;;
65407;SDS011;52017;51.230;-2.322;2022-09-27T19:40:28;5.50;;;2.00;;
65407;SDS011;52017;51.230;-2.322;2022-09-27T19:44:12;9.67;;;1.87;;
65407;SDS011;52017;51.230;-2.322;2022-09-27T19:47:54;8.57;;;2.00;;
65407;SDS011;52017;51.230;-2.322;2022-09-27T19:51:36;6.60;;;1.73;;
65407;SDS011;52017;51.230;-2.322;2022-09-27T19:55:18;7.03;;;2.23;;
65407;SDS011;52017;51.230;-2.322;2022-09-27T19:59:00;8.33;;;2.50;;
65407;SDS011;52017;51.230;-2.322;2022-09-27T20:02:47;5.33;;;2.00;;
65407;SDS011;52017;51.230;-2.322;2022-09-27T20:06:29;8.33;;;2.30;;
65407;SDS011;52017;51.230;-2.322;2022-09-27T20:10:12;8.47;;;2.23;;
65407;SDS011;52017;51.230;-2.322;2022-09-27T20:13:55;6.27;;;2.10;;
65407;SDS011;52017;51.230;-2.322;2022-09-27T20:17:39;7.20;;;1.90;;
65407;SDS011;52017;51.230;-2.322;2022-09-27T20:21:22;6.30;;;1.83;;
65407;SDS011;52017;51.230;-2.322;2022-09-27T20:25:06;6.90;;;2.30;;
65407;SDS011;52017;51.230;-2.322;2022-09-27T20:28:49;6.83;;;1.90;;
65407;SDS011;52017;51.230;-2.322;2022-09-27T20:32:32;6.37;;;1.60;;
65407;SDS011;52017;51.230;-2.322;2022-09-27T20:36:24;7.23;;;2.57;;
65407;SDS011;52017;51.230;-2.322;2022-09-27T20:40:11;8.30;;;2.08;;
65407;SDS011;52017;51.230;-2.322;2022-09-27T20:43:54;7.87;;;2.03;;
65407;SDS011;52017;51.230;-2.322;2022-09-27T20:47:37;5.43;;;1.80;;
65407;SDS011;52017;51.230;-2.322;2022-09-27T20:51:19;6.33;;;1.90;;
65407;SDS011;52017;51.230;-2.322;2022-09-27T20:55:02;8.87;;;2.17;;
65407;SDS011;52017;51.230;-2.322;2022-09-27T20:58:44;7.80;;;1.87;;
65407;SDS011;52017;51.230;-2.322;2022-09-27T21:02:27;7.50;;;1.77;;
65407;SDS011;52017;51.230;-2.322;2022-09-27T21:06:09;9.30;;;2.07;;
65407;SDS011;52017;51.230;-2.322;2022-09-27T21:09:53;7.77;;;2.27;;
65407;SDS011;52017;51.230;-2.322;2022-09-27T21:13:35;7.23;;;2.03;;
65407;SDS011;52017;51.230;-2.322;2022-09-27T21:17:21;7.40;;;1.88;;
65407;SDS011;52017;51.230;-2.322;2022-09-27T21:21:06;9.80;;;1.93;;
65407;SDS011;52017;51.230;-2.322;2022-09-27T21:24:50;9.70;;;2.57;;
65407;SDS011;52017;51.230;-2.322;2022-09-27T21:28:33;9.13;;;2.17;;
65407;SDS011;52017;51.230;-2.322;2022-09-27T21:32:16;7.53;;;2.10;;
65407;SDS011;52017;51.230;-2.322;2022-09-27T21:35:58;13.00;;;5.50;;
65407;SDS011;52017;51.230;-2.322;2022-09-27T21:39:40;7.63;;;2.10;;
65407;SDS011;52017;51.230;-2.322;2022-09-27T21:43:26;13.67;;;2.70;;
65407;SDS011;52017;51.230;-2.322;2022-09-27T21:47:09;11.70;;;2.77;;
65407;SDS011;52017;51.230;-2.322;2022-09-27T21:50:52;9.10;;;2.63;;
65407;SDS011;52017;51.230;-2.322;2022-09-27T21:54:34;10.73;;;2.70;;
65407;SDS011;52017;51.230;-2.322;2022-09-27T21:58:16;11.57;;;5.93;;
65407;SDS011;52017;51.230;-2.322;2022-09-27T22:01:58;8.27;;;2.40;;
65407;SDS011;52017;51.230;-2.322;2022-09-27T22:05:44;13.30;;;2.87;;
65407;SDS011;52017;51.230;-2.322;2022-09-27T22:09:30;8.13;;;2.00;;
65407;SDS011;52017;51.230;-2.322;2022-09-27T22:13:12;9.23;;;2.27;;
65407;SDS011;52017;51.230;-2.322;2022-09-27T22:16:54;6.33;;;1.93;;
65407;SDS011;52017;51.230;-2.322;2022-09-27T22:20:36;17.53;;;4.97;;
65407;SDS011;52017;51.230;-2.322;2022-09-27T22:24:18;11.90;;;5.90;;
65407;SDS011;52017;51.230;-2.322;2022-09-27T22:28:00;10.33;;;2.50;;
65407;SDS011;52017;51.230;-2.322;2022-09-27T22:31:43;13.80;;;2.20;;
65407;SDS011;52017;51.230;-2.322;2022-09-27T22:35:25;7.63;;;2.47;;
65407;SDS011;52017;51.230;-2.322;2022-09-27T22:39:06;10.43;;;2.13;;
65407;SDS011;52017;51.230;-2.322;2022-09-27T22:42:49;9.87;;;2.10;;
65407;SDS011;52017;51.230;-2.322;2022-09-27T22:46:31;12.50;;;2.60;;
65407;SDS011;52017;51.230;-2.322;2022-09-27T22:50:14;9.80;;;2.13;;
65407;SDS011;52017;51.230;-2.322;2022-09-27T22:53:56;6.57;;;1.70;;
65407;SDS011;52017;51.230;-2.322;2022-09-27T22:57:38;9.47;;;2.30;;
65407;SDS011;52017;51.230;-2.322;2022-09-27T23:01:21;8.47;;;1.80;;
65407;SDS011;52017;51.230;-2.322;2022-09-27T23:05:04;14.07;;;2.20;;
65407;SDS011;52017;51.230;-2.322;2022-09-27T23:08:46;9.83;;;1.93;;
65407;SDS011;52017;51.230;-2.322;2022-09-27T23:12:28;11.30;;;2.53;;
65407;SDS011;52017;51.230;-2.322;2022-09-27T23:16:12;7.03;;;2.00;;
65407;SDS011;52017;51.230;-2.322;2022-09-27T23:19:55;9.70;;;2.43;;
65407;SDS011;52017;51.230;-2.322;2022-09-27T23:23:39;8.20;;;1.97;;
65407;SDS011;52017;51.230;-2.322;2022-09-27T23:27:22;6.13;;;1.90;;
65407;SDS011;52017;51.230;-2.322;2022-09-27T23:31:22;9.20;;;1.83;;
65407;SDS011;52017;51.230;-2.322;2022-09-27T23:35:06;13.03;;;2.97;;
65407;SDS011;52017;51.230;-2.322;2022-09-27T23:38:48;7.77;;;2.20;;
65407;SDS011;52017;51.230;-2.322;2022-09-27T23:42:30;8.13;;;1.90;;
65407;SDS011;52017;51.230;-2.322;2022-09-27T23:46:13;13.60;;;2.70;;
65407;SDS011;52017;51.230;-2.322;2022-09-27T23:49:55;10.83;;;2.37;;
65407;SDS011;52017;51.230;-2.322;2022-09-27T23:53:38;11.40;;;2.20;;
65407;SDS011;52017;51.230;-2.322;2022-09-27T23:57:20;11.37;;;2.13;;
